LRSV/SCV METAR and TAF weather

Enter ICAO airport designator
Station Type Date Time Source
LRSV METAR 2022/12/10 01:00 UTC NOAA

LRSV 100100Z 14006KT 0200 R34/0400N FG VV001 05/05 Q1004


Station Type Date Time Source
LRSV Decoded METAR 2022/12/10 01:00 UTC NOAA

Suceava / Salcea, Romania (LRSV) 47-39N 026-15E 351M
Dec 09, 2022 - 08:00 PM EST / 2022.12.10 0100 UTC
Wind: from the SE (140 degrees) at 7 MPH (6 KT):0
Visibility: less than 1 mile:0
Sky conditions: obscured
Weather: fog
Temperature: 41 F (5 C)
Dew Point: 41 F (5 C)
Relative Humidity: 100%
Pressure (altimeter): 29.65 in. Hg (1004 hPa)
ob: LRSV 100100Z 14006KT 0200 R34/0400N FG VV001 05/05 Q1004
cycle: 1

Station Type Date Time Source
LRSV TAF 2014/07/19 18:48 UTC NOAA

TAF LRSV 191800Z 1918/2024 CNL

Example: see airport list